Terminal Aerodrome Forecast
Issued by NWS Lubbock, TX

Home | Current Version | Previous Version | Text Only | Print | Product List | Glossary On
Versions: 1 2 3 4 5 6 7 8 9 10 11 12 13
267
FTUS44 KLUB 290215 AAA
TAFLBB
TAF AMD
KLBB 290215Z 2902/2924 11011KT P6SM FEW100
     FM291100 15011KT P6SM BKN015
     FM291700 17015KT P6SM BKN050=

USA.gov is the U.S. government's official web portal to all federal, state and local government web resources and services.